Relevés horaires Eggishorn (Suisse)


Relevés horaires à Eggishorn - Dimanche 04 Août 2019
Heure UTC1 Température [°C] Vent [km/h] Hum. [%] Pres.4 [hPa] Visi. [Km] Nébu. [octa] Préc.5 [mm] Cond.
2m. Res. Ros. Dir.2 Vit. Moy. Raf.3
23:00 7.9 5.9 -1.0 ONO 11.1 -- 24.1 53 700(0.1/3h) -- -- -- --
22:00 8.3 6.1 -1.9 OSO 13.0 -- 29.6 49 700(0.5/3h) -- -- -- --
21:00 8.7 6.6 -1.9 O 13.0 -- 44.4 47 700(0.6/3h) -- -- -- --
20:00 9.2 6.3 -1.3 O 20.4 -- 44.4 48 700(0.6/3h) -- -- -- --
19:00 10.0 7.3 -1.9 O 20.4 -- 31.5 43 700(0.4/3h) -- -- -- --
18:00 10.6 8.3 -3.1 ONO 18.5 -- 35.2 38 700(0.2/3h) -- -- -- --
17:00 11.2 9 -3.6 NO 18.5 -- 29.6 35 700(0.0/3h) -- -- -- --
16:00 10.9 9 -3.9 NNO 14.8 -- 35.2 35 700(-0.1/3h) -- -- -- --
15:00 12.1 11 -3.1 NNO 11.1 -- 31.5 34 700(0.2/3h) -- -- -- --
14:00 11.9 10.1 -0.7 NO 16.7 -- 27.8 42 700(0.4/3h) -- -- -- --
13:00 11.8 11.2 -4.4 O 7.4 -- 20.4 32 700(0.4/3h) -- -- -- --
12:00 11.3 11.1 1.3 OSO 5.6 -- 20.4 50 700(0.5/3h) -- -- -- --
11:00 10.9 10.6 3.0 S 5.6 -- 16.7 58 700(0.7/3h) -- -- -- --
11:00 10.9 10.6 3.0 S 5.6 -- 16.7 58 700(0.7/3h) -- -- -- --
10:00 9.4 8.4 6.2 SSE 7.4 -- 18.5 80 700(0.8/3h) -- -- -- --
10:00 9.4 8.4 6.2 SSE 7.4 -- 18.5 80 700(0.8/3h) -- -- -- --
09:00 7.6 7.6 4.7 SE 3.7 -- 20.4 82 700(0.7/3h) -- -- -- --
09:00 7.6 7.6 4.7 SE 3.7 -- 20.4 82 700(0.7/3h) -- -- -- --
08:00 6.8 6.8 -4.1 O 3.7 -- 16.7 46 700(0.7/3h) -- -- -- --
08:00 6.8 6.8 -4.1 O 3.7 -- 16.7 46 700(0.7/3h) -- -- -- --
07:00 6.1 3.8 -8.4 O 11.1 -- 20.4 34 700(0.6/3h) -- -- -- --
07:00 6.1 3.8 -8.4 O 11.1 -- 20.4 34 700(0.6/3h) -- -- -- --
06:00 6.0 3.3 -10.7 OSO 13.0 -- 29.6 29 700(0.4/3h) -- -- -- --
05:00 5.8 2.5 -11.4 OSO 16.7 -- 22.2 28 700(0.0/3h) -- -- -- --

1 Coordinated Universal Time. Actuellement il est 13:00 locale et 11:00 UTC.

2 Le vent souffle depuis la direction indiquée vers la direction oposée.

3 Les rafales max. sont disponible 40 min après l'heure du relevé.

4 Pour les stations d'altitude (plus de 600m) le géopotentiel du niveau le plus proche de la pression obligatoire est indiqué.

5 Les stations disposant d'un diffuseur peuvent indiquer "trace". Cela signifie que des précipitations ont touchés le sol mais que la quantité est inférieure à 0.1 mm.

Copyright

Les données affichées sur cette page sont la propriété exclusive de Météo Suisse.

Récapitulatif de la journée
Température [°C] Vent [km/h] Ensoleillement4 [h] Precipitations totale5 [mm] Pression [Hpa]
Min1 Max.2 Moy.3 Max. Min Max.
4.2 13.4 0 44.4 12 h 6 min 0 700.0 700.0

1 Température minimale relevée entre 18:00 UTC la veille et 18:00 UTC le jour donné.

2 Température maximale relevée entre 06:00 UTC le jour donné et 06:00 UTC le lendemain.

3 Vent moyen de la journée basé sur les relevés horaires.

4 Ensoleillement en heures relevé entre 06:00 UTC la veille et 06:00 UTC le jour donné.

5 Précipitations totales tombées entre 06:00 UTC la jour donné et 06:00 UTC le lendemain.

Graphiques horaires